Airfield :
LOGIN :

Register | Disclaimer

   EN    FR    IT 

 










Legend :    VFR   Marginal VFR   IFR   Intensive IFR   Very Intensive IFR
Visi :
Ceiling :
>= 8 km
>= 3000ft
5 to 8 km
1000 to 3000 ft
1500m to 5 km
500 to 1000 ft
800 to 1500m
200 to 500 ft
< 800m
< 200 ft
Symbols :   Thunderstorms  Fog  Heavy snow  Heavy precipitations  Wind > 20 kt
SIGMETs :     Misc.  Thunderstorms  Icing  Turbulence  Mountain Waves  Volcanic Ashes






- Airport Elevation : 791 ft
- IATA code : KRK


EPKK - Krakow-Balice

CURRENT METAR :
  • 072200Z 23012KT 9999 BKN035 05/03 Q1013 R25/29//95

EXPIRED METARs :
  • 072130Z 24012KT 9999 SCT032 BKN040 06/03 Q1013 R25/29//95
  • 072100Z 24012KT 9999 OVC032 06/03 Q1013 R25/29//95
  • 072030Z 24012KT 9999 BKN033 06/03 Q1013 R25/29//95
  • 072000Z 24013KT 9999 BKN035 06/03 Q1013 R25/29//95
  • 071930Z 24013KT 9999 SCT035 BKN055 06/03 Q1013 R25/29//95

TAF TAF EPKK
Valid from the 07 at 21:00 until the 08 at 21:00 UTC


072030Z 0721/0821 24014KT 9999 BKN040
PROB40
TEMPO 0721/0724 4000 SHRA BKN025CB
PROB40
TEMPO 0809/0816 23015G25KT
BECMG 0818/0821 24004KT



MET'MAP, your aeronautical weather chart ! - Copyright ORBIFLY December 2007 - Disclaimer

ORBIFLY MET'MAP TEAM :

Programming & Development : Alexandra Zaïnal
Concept & original design : Baudouin d'Aumeries
Assistance for programming : Marc-Olivier Méhu
Technical & hardware support : Manuel Goepfert

Contact : metmap@orbifly.com




SOURCES & CREDITS :

   NOAA